Time;durP1;ratioP1;P1;durP2;ratioP2;P2;SDS_P1;SDS_P2;PMS_P1;PMS_P2;Temp;Humidity;BMP_temperature;BMP_pressure;BME280_temperature;BME280_humidity;BME280_pressure;Samples;Min_cycle;Max_cycle;Signal;HPM_P1;HPM_P2
2022/03/10 00:00:38;;;;;;;8.50;3.03;;;;;;;;;;6063198;23;20006;-55
2022/03/10 00:03:04;;;;;;;11.50;3.60;;;;;;;;;;6063636;23;20678;-53
2022/03/10 00:05:29;;;;;;;10.15;2.67;;;;;;;;;;6066365;23;20030;-55
2022/03/10 00:07:55;;;;;;;5.72;2.67;;;;;;;;;;6064267;23;20485;-53
2022/03/10 00:10:20;;;;;;;9.27;2.83;;;;;;;;;;6065562;23;20023;-55
2022/03/10 00:12:46;;;;;;;7.38;2.88;;;;;;;;;;6065103;23;20019;-56
2022/03/10 00:15:11;;;;;;;6.75;3.10;;;;;;;;;;6067349;23;20042;-50
2022/03/10 00:17:36;;;;;;;6.47;3.67;;;;;;;;;;6066034;23;20098;-55
2022/03/10 00:20:02;;;;;;;9.98;3.53;;;;;;;;;;6068802;23;20019;-55
2022/03/10 00:22:28;;;;;;;6.53;3.20;;;;;;;;;;6066578;23;20007;-54
2022/03/10 00:24:53;;;;;;;6.15;3.13;;;;;;;;;;6061393;23;20018;-55
2022/03/10 00:27:18;;;;;;;7.90;3.70;;;;;;;;;;6065706;23;20014;-52
2022/03/10 00:29:44;;;;;;;9.32;2.72;;;;;;;;;;6067858;23;20034;-54
2022/03/10 00:32:09;;;;;;;7.90;3.45;;;;;;;;;;6067011;23;20035;-54
2022/03/10 00:34:35;;;;;;;9.20;4.15;;;;;;;;;;6066795;23;20043;-55
2022/03/10 00:37:01;;;;;;;8.57;2.90;;;;;;;;;;6066199;23;20031;-54
2022/03/10 00:39:26;;;;;;;8.30;3.28;;;;;;;;;;6067104;23;20031;-55
2022/03/10 00:41:52;;;;;;;11.48;3.80;;;;;;;;;;6041522;23;20037;-55
2022/03/10 00:44:17;;;;;;;9.77;3.20;;;;;;;;;;6066923;23;20025;-54
2022/03/10 00:46:42;;;;;;;6.63;3.17;;;;;;;;;;6065695;23;20019;-55
2022/03/10 00:49:08;;;;;;;5.53;3.22;;;;;;;;;;6069003;23;20019;-55
2022/03/10 00:51:33;;;;;;;13.05;3.88;;;;;;;;;;6065538;23;20017;-54
2022/03/10 00:53:58;;;;;;;7.30;2.90;;;;;;;;;;6067300;23;20453;-56
2022/03/10 00:56:23;;;;;;;8.45;2.78;;;;;;;;;;6065753;23;20054;-52
2022/03/10 00:58:48;;;;;;;7.78;2.85;;;;;;;;;;6066912;23;20099;-54
2022/03/10 01:01:14;;;;;;;7.35;3.78;;;;;;;;;;6065685;23;20208;-56
2022/03/10 01:03:39;;;;;;;6.18;3.10;;;;;;;;;;6067221;23;20026;-56
2022/03/10 01:06:04;;;;;;;9.75;3.65;;;;;;;;;;6066894;23;20011;-54
2022/03/10 01:08:30;;;;;;;11.52;4.18;;;;;;;;;;6067200;23;20025;-56
2022/03/10 01:10:55;;;;;;;7.47;4.15;;;;;;;;;;6064898;23;20026;-56
2022/03/10 01:13:20;;;;;;;8.95;4.00;;;;;;;;;;6067464;23;20067;-55
2022/03/10 01:15:47;;;;;;;12.10;3.53;;;;;;;;;;6065407;23;20026;-54
2022/03/10 01:18:12;;;;;;;11.48;3.45;;;;;;;;;;6067716;23;20014;-54
2022/03/10 01:20:38;;;;;;;6.85;3.17;;;;;;;;;;6065800;23;20174;-55
2022/03/10 01:23:03;;;;;;;8.98;3.63;;;;;;;;;;6066899;23;20029;-56
2022/03/10 04:00:50;;;;;;;5.35;3.30;;;;;;;;;;6063034;23;20041;-53
2022/03/10 04:03:15;;;;;;;6.53;3.42;;;;;;;;;;6059124;23;20455;-54
2022/03/10 04:05:40;;;;;;;8.82;3.33;;;;;;;;;;6067812;23;20014;-54
2022/03/10 04:08:06;;;;;;;4.53;3.30;;;;;;;;;;6068728;23;20178;-54
2022/03/10 04:10:31;;;;;;;7.63;3.40;;;;;;;;;;6067220;23;20045;-54
2022/03/10 04:12:57;;;;;;;8.38;3.72;;;;;;;;;;6062905;23;20030;-54
2022/03/10 04:15:22;;;;;;;9.88;3.40;;;;;;;;;;6067690;23;20099;-54
2022/03/10 04:17:47;;;;;;;17.02;3.95;;;;;;;;;;6068677;23;20034;-55
2022/03/10 04:20:13;;;;;;;7.03;3.47;;;;;;;;;;6067485;23;20018;-53
2022/03/10 04:22:39;;;;;;;7.82;3.97;;;;;;;;;;6069301;23;20033;-51
2022/03/10 04:25:05;;;;;;;11.77;3.20;;;;;;;;;;6068347;23;20015;-55
2022/03/10 04:27:30;;;;;;;8.40;3.67;;;;;;;;;;6067824;23;20352;-54
2022/03/10 04:29:55;;;;;;;8.75;4.07;;;;;;;;;;6068115;23;20014;-55
2022/03/10 04:32:21;;;;;;;7.00;2.85;;;;;;;;;;6067629;23;20018;-55
2022/03/10 04:34:46;;;;;;;8.43;3.88;;;;;;;;;;6069167;23;20019;-54
2022/03/10 04:37:11;;;;;;;5.30;3.42;;;;;;;;;;6066652;23;20111;-55
2022/03/10 04:39:36;;;;;;;7.15;3.25;;;;;;;;;;6069454;23;20031;-54
2022/03/10 04:42:02;;;;;;;9.75;3.40;;;;;;;;;;6067403;23;20098;-53
2022/03/10 04:44:27;;;;;;;7.22;3.40;;;;;;;;;;6069191;23;20007;-53
2022/03/10 04:46:52;;;;;;;10.38;3.33;;;;;;;;;;6066944;23;20026;-55
2022/03/10 04:49:17;;;;;;;8.35;4.05;;;;;;;;;;6068330;23;20034;-53
2022/03/10 04:51:43;;;;;;;5.78;3.40;;;;;;;;;;6068455;23;20019;-55
2022/03/10 04:54:08;;;;;;;7.45;3.80;;;;;;;;;;6067952;23;20026;-53
2022/03/10 04:56:33;;;;;;;12.90;3.70;;;;;;;;;;6068114;23;20023;-54
2022/03/10 04:58:59;;;;;;;5.03;2.85;;;;;;;;;;6067255;23;20019;-52
2022/03/10 05:01:24;;;;;;;9.98;4.18;;;;;;;;;;6066180;23;20034;-52
2022/03/10 05:03:50;;;;;;;12.95;3.83;;;;;;;;;;6042317;23;20029;-54
2022/03/10 05:06:15;;;;;;;7.82;3.70;;;;;;;;;;6065895;23;20050;-56
2022/03/10 05:08:41;;;;;;;6.88;3.22;;;;;;;;;;6067406;23;20052;-52
2022/03/10 05:11:06;;;;;;;9.77;3.65;;;;;;;;;;6066882;23;20058;-51
2022/03/10 05:13:31;;;;;;;8.18;3.20;;;;;;;;;;6067046;23;20018;-52
2022/03/10 05:15:56;;;;;;;6.28;3.13;;;;;;;;;;6040535;23;20027;-51
2022/03/10 05:18:22;;;;;;;7.80;3.58;;;;;;;;;;6067059;23;20026;-53
2022/03/10 05:20:48;;;;;;;9.02;4.65;;;;;;;;;;6066523;23;20468;-57
2022/03/10 05:23:13;;;;;;;6.95;3.55;;;;;;;;;;6067662;23;20153;-56
2022/03/10 05:25:39;;;;;;;7.90;3.47;;;;;;;;;;6064742;23;20011;-53
2022/03/10 05:28:07;;;;;;;6.43;3.65;;;;;;;;;;6066998;23;20271;-54
2022/03/10 05:30:32;;;;;;;5.30;3.13;;;;;;;;;;6064701;23;20019;-58
2022/03/10 05:32:58;;;;;;;7.18;3.53;;;;;;;;;;6066642;23;20026;-56
2022/03/10 05:35:23;;;;;;;6.97;3.83;;;;;;;;;;6063175;23;20023;-56
2022/03/10 05:37:49;;;;;;;9.32;3.65;;;;;;;;;;6067363;23;20098;-55
2022/03/10 05:40:15;;;;;;;9.15;3.55;;;;;;;;;;6064297;23;20025;-55
2022/03/10 05:42:41;;;;;;;7.53;3.83;;;;;;;;;;6067781;23;20014;-57
2022/03/10 05:45:07;;;;;;;10.00;4.00;;;;;;;;;;6064191;23;20042;-55
2022/03/10 05:47:34;;;;;;;8.90;4.03;;;;;;;;;;6066792;23;20098;-57
2022/03/10 05:49:59;;;;;;;13.05;3.38;;;;;;;;;;6064347;23;20019;-57
2022/03/10 05:52:24;;;;;;;6.47;4.18;;;;;;;;;;6066921;23;20017;-53
2022/03/10 05:54:50;;;;;;;10.52;4.40;;;;;;;;;;6064587;23;20452;-58
2022/03/10 05:57:15;;;;;;;9.20;4.60;;;;;;;;;;6066542;23;20027;-53
2022/03/10 05:59:40;;;;;;;10.38;3.70;;;;;;;;;;6065633;23;20015;-56
2022/03/10 06:02:05;;;;;;;12.38;4.88;;;;;;;;;;6067344;23;20334;-55
2022/03/10 06:04:31;;;;;;;12.25;4.13;;;;;;;;;;6065745;23;20007;-56
2022/03/10 06:06:56;;;;;;;9.88;4.13;;;;;;;;;;6066514;23;20015;-57
2022/03/10 06:09:21;;;;;;;12.50;3.20;;;;;;;;;;6064592;23;20021;-54
2022/03/10 06:11:47;;;;;;;9.13;4.47;;;;;;;;;;6067198;23;20029;-57
2022/03/10 06:14:12;;;;;;;5.70;3.72;;;;;;;;;;6064151;23;20011;-56
2022/03/10 06:16:37;;;;;;;5.30;3.35;;;;;;;;;;6067425;23;20019;-55
2022/03/10 06:19:03;;;;;;;14.68;4.05;;;;;;;;;;6039357;23;20010;-56
2022/03/10 06:21:28;;;;;;;6.25;3.33;;;;;;;;;;6067192;23;20015;-57
2022/03/10 06:23:54;;;;;;;15.02;3.05;;;;;;;;;;6064724;23;20043;-56
2022/03/10 06:26:19;;;;;;;13.45;3.40;;;;;;;;;;6066258;23;20059;-57
2022/03/10 06:28:44;;;;;;;8.98;3.10;;;;;;;;;;6064319;23;20095;-55
2022/03/10 06:31:09;;;;;;;9.65;3.17;;;;;;;;;;6066464;23;20015;-55
2022/03/10 06:33:36;;;;;;;12.63;3.97;;;;;;;;;;6063695;23;20019;-55
2022/03/10 06:36:02;;;;;;;8.20;3.67;;;;;;;;;;6066116;23;20035;-56
2022/03/10 06:38:28;;;;;;;10.73;3.40;;;;;;;;;;6064648;23;20093;-56
2022/03/10 06:40:53;;;;;;;6.50;2.75;;;;;;;;;;6065859;23;20018;-54
2022/03/10 06:43:18;;;;;;;4.78;3.10;;;;;;;;;;6064599;23;20471;-56
2022/03/10 06:45:44;;;;;;;7.32;3.40;;;;;;;;;;6067429;23;20011;-57
2022/03/10 06:48:10;;;;;;;7.18;3.13;;;;;;;;;;6064043;23;20051;-56
2022/03/10 06:50:35;;;;;;;8.73;3.97;;;;;;;;;;6066369;23;20022;-53
2022/03/10 06:53:01;;;;;;;12.15;4.15;;;;;;;;;;6063330;23;20015;-57
2022/03/10 06:55:26;;;;;;;11.63;3.25;;;;;;;;;;6065779;23;20042;-54
2022/03/10 06:57:52;;;;;;;11.75;3.38;;;;;;;;;;6064734;23;20015;-58
2022/03/10 07:00:18;;;;;;;5.28;2.80;;;;;;;;;;6065676;23;20015;-53
2022/03/10 07:02:43;;;;;;;8.10;3.47;;;;;;;;;;6064524;23;20079;-53
2022/03/10 07:05:08;;;;;;;5.72;2.85;;;;;;;;;;6066792;23;20023;-54
2022/03/10 07:07:34;;;;;;;12.70;3.83;;;;;;;;;;6064763;23;20011;-53
2022/03/10 07:09:59;;;;;;;6.72;3.13;;;;;;;;;;6065964;23;20082;-55
2022/03/10 07:12:27;;;;;;;4.90;2.78;;;;;;;;;;6064538;23;20364;-55
2022/03/10 07:14:53;;;;;;;9.02;2.97;;;;;;;;;;6066319;23;20015;-57
2022/03/10 07:17:18;;;;;;;7.00;3.30;;;;;;;;;;6064630;23;20315;-55
2022/03/10 07:19:45;;;;;;;7.35;3.15;;;;;;;;;;6065565;23;20077;-56
2022/03/10 07:22:11;;;;;;;7.65;2.60;;;;;;;;;;6063524;23;20099;-55
2022/03/10 07:24:36;;;;;;;7.95;2.38;;;;;;;;;;6040956;23;20015;-55
2022/03/10 07:27:01;;;;;;;8.10;3.00;;;;;;;;;;6062451;23;20081;-57
2022/03/10 07:29:26;;;;;;;10.25;2.70;;;;;;;;;;6063592;23;20098;-56
2022/03/10 07:31:52;;;;;;;7.05;2.50;;;;;;;;;;6056068;23;20018;-57
2022/03/10 07:34:17;;;;;;;5.00;3.13;;;;;;;;;;6057987;23;20030;-55
2022/03/10 07:36:43;;;;;;;8.65;4.32;;;;;;;;;;6063122;23;20026;-52
2022/03/10 07:39:08;;;;;;;14.07;3.97;;;;;;;;;;6038049;23;20092;-56
2022/03/10 07:41:33;;;;;;;8.18;2.80;;;;;;;;;;6064163;23;20007;-56
2022/03/10 07:43:59;;;;;;;5.28;2.40;;;;;;;;;;6064291;23;20014;-56
2022/03/10 07:46:24;;;;;;;7.60;2.95;;;;;;;;;;6063813;23;20025;-54
2022/03/10 07:48:50;;;;;;;6.90;2.47;;;;;;;;;;6060292;23;20101;-54
2022/03/10 07:51:15;;;;;;;8.07;2.28;;;;;;;;;;6063663;23;20437;-54
2022/03/10 07:53:41;;;;;;;7.32;2.67;;;;;;;;;;6053764;23;20043;-55
2022/03/10 07:56:06;;;;;;;5.40;1.90;;;;;;;;;;6066425;23;20051;-53
2022/03/10 07:58:32;;;;;;;6.80;2.30;;;;;;;;;;6064412;23;20023;-54
2022/03/10 08:00:58;;;;;;;9.82;2.88;;;;;;;;;;6066019;23;20022;-53
2022/03/10 08:03:23;;;;;;;14.18;2.55;;;;;;;;;;6063365;23;20118;-55
2022/03/10 08:05:50;;;;;;;12.48;2.95;;;;;;;;;;6065738;23;20086;-54
2022/03/10 08:08:15;;;;;;;10.63;2.25;;;;;;;;;;6063177;23;20015;-52
2022/03/10 08:10:40;;;;;;;8.15;2.63;;;;;;;;;;6039636;23;20018;-52
2022/03/10 08:13:06;;;;;;;3.95;2.38;;;;;;;;;;6037300;23;20018;-53
2022/03/10 08:15:31;;;;;;;11.60;3.00;;;;;;;;;;6064403;23;20910;-56
2022/03/10 08:17:56;;;;;;;5.75;3.22;;;;;;;;;;6037449;23;20075;-55
2022/03/10 08:20:23;;;;;;;10.40;3.30;;;;;;;;;;6064660;23;20026;-51
2022/03/10 08:22:48;;;;;;;8.25;2.50;;;;;;;;;;6063339;23;20023;-55
2022/03/10 08:25:13;;;;;;;6.85;2.40;;;;;;;;;;6062299;23;20026;-55
2022/03/10 08:27:39;;;;;;;7.95;2.90;;;;;;;;;;6034864;23;20048;-55
2022/03/10 08:30:04;;;;;;;14.25;3.17;;;;;;;;;;6064284;23;20011;-50
2022/03/10 08:32:30;;;;;;;10.20;3.20;;;;;;;;;;6053675;23;20029;-54
2022/03/10 08:34:55;;;;;;;5.28;2.22;;;;;;;;;;6061612;23;20021;-53
2022/03/10 08:37:20;;;;;;;5.93;2.22;;;;;;;;;;6060878;23;20046;-56
2022/03/10 08:39:46;;;;;;;6.78;2.10;;;;;;;;;;6062599;23;20022;-54
2022/03/10 08:42:11;;;;;;;14.45;3.10;;;;;;;;;;6060081;23;20063;-55
2022/03/10 08:44:37;;;;;;;7.70;3.20;;;;;;;;;;6061357;23;20011;-52
2022/03/10 08:47:02;;;;;;;4.50;2.25;;;;;;;;;;6061373;23;20114;-54
2022/03/10 08:49:28;;;;;;;7.55;2.67;;;;;;;;;;6061698;23;20085;-55
2022/03/10 08:51:54;;;;;;;8.43;2.50;;;;;;;;;;6058055;23;20047;-54
2022/03/10 08:54:20;;;;;;;6.90;3.35;;;;;;;;;;6059613;23;20106;-55
2022/03/10 08:56:45;;;;;;;7.22;2.53;;;;;;;;;;6059936;23;20479;-52
2022/03/10 08:59:10;;;;;;;6.72;2.08;;;;;;;;;;6060714;23;20182;-48
2022/03/10 09:01:36;;;;;;;5.18;1.95;;;;;;;;;;6006433;23;1342493;-53
2022/03/10 09:04:02;;;;;;;3.58;2.10;;;;;;;;;;6062419;23;20047;-54
2022/03/10 09:06:27;;;;;;;11.90;2.25;;;;;;;;;;6057410;23;20030;-55
2022/03/10 09:08:52;;;;;;;5.68;2.53;;;;;;;;;;6045614;23;20025;-53
2022/03/10 09:11:18;;;;;;;6.75;1.95;;;;;;;;;;6059561;23;20011;-52
2022/03/10 09:13:48;;;;;;;4.90;1.90;;;;;;;;;;6059540;23;20015;-52
2022/03/10 09:16:13;;;;;;;10.45;2.03;;;;;;;;;;6060615;23;20444;-51
2022/03/10 09:18:39;;;;;;;5.28;2.75;;;;;;;;;;6039696;23;20007;-52
2022/03/10 09:21:05;;;;;;;8.68;2.47;;;;;;;;;;6065784;23;20034;-53
2022/03/10 09:23:30;;;;;;;6.90;2.92;;;;;;;;;;6063359;23;20093;-50
2022/03/10 09:25:55;;;;;;;6.22;2.15;;;;;;;;;;6065418;23;20038;-46
2022/03/10 09:28:21;;;;;;;7.80;2.42;;;;;;;;;;6065213;23;20080;-50
2022/03/10 09:30:46;;;;;;;7.93;2.05;;;;;;;;;;6066789;23;20014;-54
2022/03/10 09:33:11;;;;;;;5.55;1.83;;;;;;;;;;6063676;23;20018;-53
2022/03/10 09:35:36;;;;;;;3.97;1.45;;;;;;;;;;6066721;23;20011;-52
2022/03/10 09:38:01;;;;;;;6.40;2.38;;;;;;;;;;6063977;23;20078;-52
2022/03/10 09:40:27;;;;;;;3.65;2.40;;;;;;;;;;6065809;23;20071;-48
2022/03/10 09:42:52;;;;;;;5.13;2.25;;;;;;;;;;6065154;23;20350;-52
2022/03/10 09:45:18;;;;;;;3.80;1.92;;;;;;;;;;6067036;23;20011;-52
2022/03/10 09:47:44;;;;;;;4.82;2.58;;;;;;;;;;6065837;23;20014;-53
2022/03/10 09:50:13;;;;;;;5.13;1.85;;;;;;;;;;6042054;23;20649;-52
2022/03/10 09:52:39;;;;;;;2.58;1.42;;;;;;;;;;6040126;23;20142;-52
2022/03/10 09:55:05;;;;;;;4.88;1.60;;;;;;;;;;6065862;23;20019;-54
2022/03/10 09:57:33;;;;;;;8.32;1.92;;;;;;;;;;6066140;23;20046;-52
2022/03/10 09:59:59;;;;;;;5.85;2.05;;;;;;;;;;6061496;23;20023;-50
2022/03/10 10:02:24;;;;;;;6.85;1.58;;;;;;;;;;6060941;23;20098;-53
2022/03/10 10:04:51;;;;;;;5.40;1.52;;;;;;;;;;6041024;23;20029;-52
2022/03/10 10:07:18;;;;;;;3.45;1.38;;;;;;;;;;6063693;23;20011;-50
2022/03/10 10:09:50;;;;;;;2.38;1.83;;;;;;;;;;6065893;23;20098;-51
2022/03/10 10:12:16;;;;;;;8.70;2.47;;;;;;;;;;6063143;23;20568;-49
2022/03/10 10:14:43;;;;;;;4.43;1.98;;;;;;;;;;6067040;23;20022;-49
2022/03/10 10:17:09;;;;;;;3.75;1.30;;;;;;;;;;6063941;23;20765;-53
2022/03/10 10:19:34;;;;;;;4.80;1.65;;;;;;;;;;6066337;23;20074;-49
2022/03/10 10:22:12;;;;;;;5.10;1.70;;;;;;;;;;6062057;23;20034;-50
2022/03/10 10:24:38;;;;;;;3.17;1.25;;;;;;;;;;6066614;23;20011;-53
2022/03/10 10:27:13;;;;;;;3.60;1.50;;;;;;;;;;6063149;23;20038;-51
2022/03/10 10:29:46;;;;;;;3.45;1.10;;;;;;;;;;6065132;23;20007;-52
2022/03/10 10:32:11;;;;;;;4.25;1.60;;;;;;;;;;6065148;23;20019;-53
2022/03/10 10:34:37;;;;;;;6.60;1.52;;;;;;;;;;6067211;23;20090;-51
2022/03/10 10:37:02;;;;;;;2.30;1.38;;;;;;;;;;6063295;23;20070;-52
2022/03/10 10:39:27;;;;;;;4.38;1.40;;;;;;;;;;6067548;23;20015;-53
2022/03/10 10:41:52;;;;;;;3.92;2.03;;;;;;;;;;6039009;23;20019;-52
2022/03/10 10:44:19;;;;;;;6.75;1.42;;;;;;;;;;6067167;23;20041;-55
2022/03/10 10:46:51;;;;;;;5.70;1.50;;;;;;;;;;6064495;23;20018;-54
2022/03/10 10:49:17;;;;;;;10.55;2.00;;;;;;;;;;6065146;23;20015;-52
2022/03/10 10:51:43;;;;;;;8.57;2.20;;;;;;;;;;6065894;23;20014;-54
2022/03/10 10:54:10;;;;;;;5.07;1.63;;;;;;;;;;6065159;23;20066;-53
2022/03/10 10:56:44;;;;;;;11.43;1.98;;;;;;;;;;6063999;23;20022;-52
2022/03/10 10:59:24;;;;;;;9.38;1.80;;;;;;;;;;6066241;23;20011;-52
2022/03/10 11:01:49;;;;;;;16.55;2.33;;;;;;;;;;6067272;23;20102;-52
2022/03/10 11:04:15;;;;;;;4.95;1.30;;;;;;;;;;6064438;23;20026;-49
2022/03/10 11:06:40;;;;;;;4.90;1.50;;;;;;;;;;6062752;23;20022;-50
2022/03/10 11:09:05;;;;;;;13.57;2.08;;;;;;;;;;6062307;23;20043;-53
2022/03/10 11:11:31;;;;;;;6.30;2.45;;;;;;;;;;6064587;23;20006;-53
2022/03/10 11:13:56;;;;;;;8.23;3.15;;;;;;;;;;6064870;23;20014;-52
2022/03/10 11:16:22;;;;;;;10.43;3.35;;;;;;;;;;6064588;23;20033;-52
2022/03/10 11:18:51;;;;;;;4.30;2.10;;;;;;;;;;6066651;23;20015;-51
2022/03/10 11:21:16;;;;;;;3.23;1.83;;;;;;;;;;6065257;23;20027;-54
2022/03/10 11:23:42;;;;;;;8.48;2.05;;;;;;;;;;6065665;23;20011;-52
2022/03/10 11:26:13;;;;;;;6.50;2.92;;;;;;;;;;6065351;23;20033;-52
2022/03/10 11:28:43;;;;;;;3.92;1.90;;;;;;;;;;6063944;23;20407;-51
2022/03/10 11:31:09;;;;;;;;;;;;;;;;;;6066574;23;20019;-52
2022/03/10 11:33:35;;;;;;;9.00;2.78;;;;;;;;;;6062856;23;19913;-49
2022/03/10 11:36:00;;;;;;;8.88;2.30;;;;;;;;;;6066616;23;20022;-50
2022/03/10 11:38:48;;;;;;;5.70;1.63;;;;;;;;;;6063954;23;20011;-52
2022/03/10 11:41:14;;;;;;;6.45;2.35;;;;;;;;;;6065188;23;20046;-54
2022/03/10 11:43:39;;;;;;;7.15;2.78;;;;;;;;;;6066046;23;20018;-51
2022/03/10 11:46:19;;;;;;;4.35;2.03;;;;;;;;;;6066048;23;20019;-52
2022/03/10 11:49:03;;;;;;;5.82;2.25;;;;;;;;;;6063351;23;20015;-52
2022/03/10 11:51:59;;;;;;;6.25;2.05;;;;;;;;;;6066136;23;20015;-52
2022/03/10 11:54:28;;;;;;;9.20;2.47;;;;;;;;;;6022918;23;20805;-52
2022/03/10 11:56:54;;;;;;;3.53;1.63;;;;;;;;;;6064505;23;20023;-53
2022/03/10 11:59:22;;;;;;;6.93;2.00;;;;;;;;;;6065156;23;20019;-50
2022/03/10 12:01:48;;;;;;;4.25;1.48;;;;;;;;;;6066012;23;20027;-52
2022/03/10 12:04:21;;;;;;;10.15;2.40;;;;;;;;;;6064341;23;20015;-52
2022/03/10 12:06:56;;;;;;;5.43;0.93;;;;;;;;;;6066247;23;20022;-49
2022/03/10 12:09:29;;;;;;;2.90;0.88;;;;;;;;;;6065360;23;20110;-55
2022/03/10 12:12:11;;;;;;;9.57;1.80;;;;;;;;;;6067254;23;20052;-55
2022/03/10 12:14:37;;;;;;;5.20;1.88;;;;;;;;;;6065548;23;20443;-56
2022/03/10 12:17:02;;;;;;;2.78;1.50;;;;;;;;;;6067945;23;20038;-51
2022/03/10 12:19:50;;;;;;;5.38;1.40;;;;;;;;;;6066106;23;20007;-51
2022/03/10 12:22:27;;;;;;;3.58;1.33;;;;;;;;;;6011033;23;20026;-50
2022/03/10 12:25:12;;;;;;;7.63;1.30;;;;;;;;;;6068936;23;20824;-50
2022/03/10 12:27:47;;;;;;;5.53;1.90;;;;;;;;;;6067177;23;20015;-50
2022/03/10 12:30:13;;;;;;;5.25;1.88;;;;;;;;;;6065220;23;20021;-51
2022/03/10 12:32:41;;;;;;;3.28;1.83;;;;;;;;;;6068283;23;20357;-51
2022/03/10 12:35:06;;;;;;;7.75;1.85;;;;;;;;;;6064715;23;20067;-52
2022/03/10 12:37:32;;;;;;;5.40;1.55;;;;;;;;;;6067371;23;20399;-50
2022/03/10 12:39:58;;;;;;;9.60;2.35;;;;;;;;;;6065187;23;20023;-50
2022/03/10 12:42:23;;;;;;;3.75;2.22;;;;;;;;;;6064952;23;20716;-52
2022/03/10 12:44:48;;;;;;;2.08;1.27;;;;;;;;;;6065266;23;20662;-52
2022/03/10 12:47:15;;;;;;;5.10;1.70;;;;;;;;;;6066350;23;20015;-52
2022/03/10 12:49:46;;;;;;;4.18;1.40;;;;;;;;;;6066506;23;20021;-50
2022/03/10 12:52:12;;;;;;;5.93;1.60;;;;;;;;;;6067441;23;20011;-51
2022/03/10 12:54:38;;;;;;;10.70;1.95;;;;;;;;;;6065308;23;20014;-49
2022/03/10 12:57:05;;;;;;;6.32;1.73;;;;;;;;;;6066791;23;20058;-53
2022/03/10 12:59:34;;;;;;;5.43;1.25;;;;;;;;;;6065987;23;20057;-51
2022/03/10 13:02:18;;;;;;;7.43;1.70;;;;;;;;;;6067174;23;20030;-54
2022/03/10 13:04:50;;;;;;;4.15;1.42;;;;;;;;;;6065773;23;20014;-51
2022/03/10 13:07:16;;;;;;;10.15;2.72;;;;;;;;;;6066069;23;20011;-49
2022/03/10 13:09:42;;;;;;;10.73;1.95;;;;;;;;;;6066068;23;20021;-46
2022/03/10 13:12:08;;;;;;;8.45;1.80;;;;;;;;;;6066078;23;20114;-47
2022/03/10 13:14:39;;;;;;;12.65;2.15;;;;;;;;;;6063292;23;20018;-51
2022/03/10 13:17:04;;;;;;;3.78;1.45;;;;;;;;;;6065908;23;20027;-55
2022/03/10 13:19:29;;;;;;;5.55;2.63;;;;;;;;;;6062577;23;20019;-51
2022/03/10 13:21:56;;;;;;;11.00;1.77;;;;;;;;;;6057107;23;20014;-54
2022/03/10 13:24:39;;;;;;;3.45;1.70;;;;;;;;;;6061603;23;20023;-53
2022/03/10 13:27:05;;;;;;;4.90;1.90;;;;;;;;;;6060555;23;20038;-54
2022/03/10 13:29:31;;;;;;;1.98;1.48;;;;;;;;;;6063007;23;20026;-53
2022/03/10 13:31:56;;;;;;;8.43;2.25;;;;;;;;;;6061707;23;20010;-54
2022/03/10 13:34:23;;;;;;;3.05;2.20;;;;;;;;;;6061361;23;20015;-53
2022/03/10 13:36:49;;;;;;;4.50;1.60;;;;;;;;;;6062357;23;20057;-56
2022/03/10 13:39:14;;;;;;;4.93;1.60;;;;;;;;;;6062671;23;20015;-53
2022/03/10 13:41:42;;;;;;;3.85;2.00;;;;;;;;;;6063623;23;20019;-54
2022/03/10 13:44:14;;;;;;;6.82;2.45;;;;;;;;;;6063274;23;20018;-56
2022/03/10 13:46:40;;;;;;;2.85;1.70;;;;;;;;;;6060964;23;21054;-54
2022/03/10 13:49:17;;;;;;;5.45;2.72;;;;;;;;;;6063816;23;20011;-55
2022/03/10 13:51:42;;;;;;;10.70;1.95;;;;;;;;;;6062186;23;20025;-56
2022/03/10 13:54:08;;;;;;;6.05;2.08;;;;;;;;;;6062158;23;20011;-53
2022/03/10 13:56:40;;;;;;;8.90;3.10;;;;;;;;;;6060649;23;20025;-55
2022/03/10 13:59:09;;;;;;;10.13;3.70;;;;;;;;;;6060154;23;20019;-56
2022/03/10 14:01:38;;;;;;;27.90;5.90;;;;;;;;;;6063487;23;20051;-53
2022/03/10 14:04:17;;;;;;;8.15;2.60;;;;;;;;;;6063762;23;20237;-54
2022/03/10 14:06:43;;;;;;;10.88;2.72;;;;;;;;;;6066097;23;20010;-55
2022/03/10 14:09:15;;;;;;;4.60;2.50;;;;;;;;;;6063821;23;20053;-52
2022/03/10 14:11:40;;;;;;;13.20;3.22;;;;;;;;;;6066900;23;20019;-50
2022/03/10 14:14:06;;;;;;;4.28;1.80;;;;;;;;;;6062907;23;20003;-53
2022/03/10 14:16:31;;;;;;;7.00;2.30;;;;;;;;;;6066812;23;20074;-52
2022/03/10 14:18:57;;;;;;;7.00;2.30;;;;;;;;;;6063619;23;20590;-55
2022/03/10 14:21:22;;;;;;;6.25;2.10;;;;;;;;;;6065459;23;20019;-53
2022/03/10 14:24:14;;;;;;;4.35;2.50;;;;;;;;;;6064921;23;20071;-55
2022/03/10 14:26:41;;;;;;;4.97;2.70;;;;;;;;;;6061516;23;20007;-54
2022/03/10 14:29:09;;;;;;;7.32;3.33;;;;;;;;;;6066538;23;20019;-52
2022/03/10 14:31:34;;;;;;;5.47;2.95;;;;;;;;;;6063010;23;20043;-55
2022/03/10 14:33:59;;;;;;;4.07;3.45;;;;;;;;;;6065635;23;20010;-52
2022/03/10 14:36:24;;;;;;;8.88;2.75;;;;;;;;;;6064768;23;20030;-54
2022/03/10 14:38:50;;;;;;;10.68;2.92;;;;;;;;;;6065878;23;20030;-55
2022/03/10 14:41:20;;;;;;;9.10;2.40;;;;;;;;;;6064673;23;20463;-54
2022/03/10 14:43:45;;;;;;;7.20;3.10;;;;;;;;;;6066520;23;20011;-52
2022/03/10 14:46:11;;;;;;;5.05;2.80;;;;;;;;;;6063610;23;20051;-51
2022/03/10 14:48:36;;;;;;;3.88;2.08;;;;;;;;;;6067426;23;20011;-52
2022/03/10 14:51:01;;;;;;;6.80;3.08;;;;;;;;;;6064492;23;20074;-56
2022/03/10 14:53:27;;;;;;;4.50;2.33;;;;;;;;;;6065612;23;20022;-54
2022/03/10 14:55:52;;;;;;;7.53;3.47;;;;;;;;;;6065432;23;20050;-56
2022/03/10 14:58:18;;;;;;;7.60;2.45;;;;;;;;;;6065216;23;20536;-52
2022/03/10 15:00:43;;;;;;;9.48;3.45;;;;;;;;;;6065734;23;20007;-55
2022/03/10 15:03:09;;;;;;;4.97;2.67;;;;;;;;;;6063090;23;20031;-56
2022/03/10 15:05:35;;;;;;;7.65;2.88;;;;;;;;;;6066136;23;20015;-54
2022/03/10 15:08:02;;;;;;;12.02;3.15;;;;;;;;;;6063117;23;20042;-52
2022/03/10 15:10:28;;;;;;;9.75;3.22;;;;;;;;;;6064865;23;20014;-53
2022/03/10 15:12:53;;;;;;;9.25;3.00;;;;;;;;;;6062670;23;20101;-52
2022/03/10 15:15:18;;;;;;;7.28;3.83;;;;;;;;;;6064294;23;20062;-55
2022/03/10 15:17:44;;;;;;;8.18;3.20;;;;;;;;;;6064934;23;20071;-54
2022/03/10 15:20:10;;;;;;;8.35;2.80;;;;;;;;;;6059130;23;20015;-51
2022/03/10 15:22:54;;;;;;;10.88;3.85;;;;;;;;;;6059369;23;20030;-52
2022/03/10 15:25:21;;;;;;;15.45;4.43;;;;;;;;;;6063045;23;20712;-54
2022/03/10 15:27:46;;;;;;;14.52;4.57;;;;;;;;;;6065363;23;20052;-55
2022/03/10 15:30:11;;;;;;;12.45;3.63;;;;;;;;;;6062982;23;20062;-52
2022/03/10 15:32:37;;;;;;;12.93;4.00;;;;;;;;;;6066056;23;20010;-53
2022/03/10 15:35:02;;;;;;;9.05;3.22;;;;;;;;;;6063411;23;20019;-54
2022/03/10 15:37:27;;;;;;;9.25;3.83;;;;;;;;;;6065392;23;20019;-53
2022/03/10 15:39:53;;;;;;;9.48;4.70;;;;;;;;;;6063529;23;20387;-54
2022/03/10 15:42:18;;;;;;;7.43;2.80;;;;;;;;;;6064675;23;20099;-55
2022/03/10 15:44:44;;;;;;;5.32;2.88;;;;;;;;;;6064049;23;20006;-51
2022/03/10 15:47:10;;;;;;;6.45;2.92;;;;;;;;;;6066290;23;20014;-53
2022/03/10 15:49:35;;;;;;;8.40;3.20;;;;;;;;;;6064404;23;20031;-51
2022/03/10 15:52:01;;;;;;;6.20;3.22;;;;;;;;;;6066060;23;20025;-55
2022/03/10 15:54:26;;;;;;;5.28;3.15;;;;;;;;;;6063507;23;20015;-53
2022/03/10 15:56:51;;;;;;;8.10;3.10;;;;;;;;;;6057611;23;20053;-54
2022/03/10 15:59:17;;;;;;;7.78;3.38;;;;;;;;;;6064210;23;20036;-53
2022/03/10 16:01:42;;;;;;;7.38;2.92;;;;;;;;;;6064996;23;20042;-51
2022/03/10 16:04:08;;;;;;;5.88;3.53;;;;;;;;;;6057342;23;20329;-55
2022/03/10 16:06:33;;;;;;;17.77;3.80;;;;;;;;;;6058830;23;20022;-54
2022/03/10 16:09:02;;;;;;;11.55;3.53;;;;;;;;;;6057687;23;20015;-53
2022/03/10 16:11:27;;;;;;;19.10;4.38;;;;;;;;;;6056322;23;20078;-53
2022/03/10 16:13:54;;;;;;;7.60;2.95;;;;;;;;;;6054644;23;20390;-53
2022/03/10 16:16:19;;;;;;;7.22;3.17;;;;;;;;;;6059593;23;20104;-55
2022/03/10 16:18:44;;;;;;;8.05;3.40;;;;;;;;;;6055487;23;20011;-54
2022/03/10 16:21:10;;;;;;;8.73;3.00;;;;;;;;;;6057845;23;20094;-53
2022/03/10 16:23:35;;;;;;;7.60;3.20;;;;;;;;;;6061887;23;20028;-52
2022/03/10 16:26:00;;;;;;;13.13;3.50;;;;;;;;;;6061310;23;20019;-56
2022/03/10 16:28:26;;;;;;;9.30;3.35;;;;;;;;;;6051523;23;20015;-52
2022/03/10 16:30:52;;;;;;;9.95;3.35;;;;;;;;;;6037236;23;20050;-53
2022/03/10 16:33:17;;;;;;;12.00;3.70;;;;;;;;;;6058064;23;20046;-53
2022/03/10 16:35:42;;;;;;;8.98;3.42;;;;;;;;;;6062347;23;20039;-53
2022/03/10 16:38:08;;;;;;;8.65;3.90;;;;;;;;;;6059347;23;20023;-51
2022/03/10 16:40:33;;;;;;;10.98;3.40;;;;;;;;;;6060821;23;20007;-53
2022/03/10 16:42:58;;;;;;;7.75;2.97;;;;;;;;;;6060106;23;20029;-53
2022/03/10 16:45:23;;;;;;;7.65;4.38;;;;;;;;;;6062977;23;20026;-54
2022/03/10 16:47:49;;;;;;;7.32;3.40;;;;;;;;;;6060356;23;20025;-54
2022/03/10 16:50:14;;;;;;;7.55;4.13;;;;;;;;;;6061398;23;20053;-54
2022/03/10 16:52:39;;;;;;;14.07;4.03;;;;;;;;;;6061096;23;20043;-52
2022/03/10 16:55:06;;;;;;;8.18;3.42;;;;;;;;;;6063038;23;20018;-56
2022/03/10 16:57:31;;;;;;;11.82;4.03;;;;;;;;;;6063581;23;20429;-54
2022/03/10 16:59:57;;;;;;;13.52;5.57;;;;;;;;;;6060621;23;20026;-52
2022/03/10 17:02:22;;;;;;;11.48;5.30;;;;;;;;;;6062244;23;20023;-54
2022/03/10 17:04:47;;;;;;;9.68;4.53;;;;;;;;;;6063716;23;20037;-52
2022/03/10 17:07:13;;;;;;;15.60;4.90;;;;;;;;;;6034747;23;20019;-53
2022/03/10 17:09:38;;;;;;;7.40;5.30;;;;;;;;;;6064027;23;20007;-56
2022/03/10 17:12:04;;;;;;;11.18;5.10;;;;;;;;;;6063050;23;20038;-54